sensor_id;sensor_type;location;lat;lon;timestamp;pressure;altitude;pressure_sealevel;temperature;humidity
40920;BME280;26652;50.280;19.026;2024-03-29T00:01:08;150149.72;;;9.47;93.13
40920;BME280;26652;50.280;19.026;2024-03-29T00:03:25;150126.31;;;9.37;94.12
40920;BME280;26652;50.280;19.026;2024-03-29T00:05:26;150063.56;;;9.11;94.28
40920;BME280;26652;50.280;19.026;2024-03-29T00:07:27;150031.53;;;8.98;96.42
40920;BME280;26652;50.280;19.026;2024-03-29T00:09:28;150031.53;;;8.98;97.89
40920;BME280;26652;50.280;19.026;2024-03-29T00:11:29;150024.16;;;8.95;99.73
40920;BME280;26652;50.280;19.026;2024-03-29T00:13:31;149990.91;;;8.81;99.67
40920;BME280;26652;50.280;19.026;2024-03-29T00:15:32;149982.28;;;8.78;100.00
40920;BME280;26652;50.280;19.026;2024-03-29T00:17:33;149985.97;;;8.79;100.00
40920;BME280;26652;50.280;19.026;2024-03-29T00:19:34;149950.28;;;8.65;100.00
40920;BME280;26652;50.280;19.026;2024-03-29T00:21:34;149887.50;;;8.39;100.00
40920;BME280;26652;50.280;19.026;2024-03-29T00:23:35;149957.66;;;8.68;100.00
40920;BME280;26652;50.280;19.026;2024-03-29T00:25:36;149952.75;;;8.66;100.00
40920;BME280;26652;50.280;19.026;2024-03-29T00:27:37;149935.50;;;8.59;100.00
40920;BME280;26652;50.280;19.026;2024-03-29T00:29:37;149920.72;;;8.52;100.00
40920;BME280;26652;50.280;19.026;2024-03-29T00:31:38;149912.13;;;8.49;100.00
40920;BME280;26652;50.280;19.026;2024-03-29T00:33:39;149951.50;;;8.65;100.00
40920;BME280;26652;50.280;19.026;2024-03-29T00:35:40;149919.50;;;8.52;100.00
40920;BME280;26652;50.280;19.026;2024-03-29T00:37:40;149936.75;;;8.59;100.00
40920;BME280;26652;50.280;19.026;2024-03-29T00:39:41;149963.81;;;8.70;100.00
40920;BME280;26652;50.280;19.026;2024-03-29T00:41:42;149944.13;;;8.62;100.00
40920;BME280;26652;50.280;19.026;2024-03-29T00:43:43;149918.28;;;8.51;100.00
40920;BME280;26652;50.280;19.026;2024-03-29T00:45:43;149947.81;;;8.64;100.00
40920;BME280;26652;50.280;19.026;2024-03-29T00:47:44;149909.66;;;8.48;100.00
40920;BME280;26652;50.280;19.026;2024-03-29T00:49:45;149921.97;;;8.53;100.00
40920;BME280;26652;50.280;19.026;2024-03-29T00:51:46;149944.13;;;8.62;100.00
40920;BME280;26652;50.280;19.026;2024-03-29T00:53:46;149923.19;;;8.53;100.00
40920;BME280;26652;50.280;19.026;2024-03-29T00:55:48;149942.88;;;8.62;100.00
40920;BME280;26652;50.280;19.026;2024-03-29T00:57:48;149892.44;;;8.41;100.00
40920;BME280;26652;50.280;19.026;2024-03-29T00:59:49;149905.97;;;8.46;100.00
40920;BME280;26652;50.280;19.026;2024-03-29T01:01:50;149865.34;;;8.30;100.00
40920;BME280;26652;50.280;19.026;2024-03-29T01:03:51;149881.34;;;8.36;100.00
40920;BME280;26652;50.280;19.026;2024-03-29T01:05:52;149907.19;;;8.47;100.00
40920;BME280;26652;50.280;19.026;2024-03-29T01:07:54;149899.81;;;8.44;100.00
40920;BME280;26652;50.280;19.026;2024-03-29T01:09:55;149931.81;;;8.57;100.00
40920;BME280;26652;50.280;19.026;2024-03-29T01:11:55;149840.72;;;8.19;100.00
40920;BME280;26652;50.280;19.026;2024-03-29T01:13:56;149882.56;;;8.37;100.00
40920;BME280;26652;50.280;19.026;2024-03-29T01:15:57;149856.72;;;8.26;100.00
40920;BME280;26652;50.280;19.026;2024-03-29T01:17:57;149904.72;;;8.46;100.00
40920;BME280;26652;50.280;19.026;2024-03-29T01:19:58;149861.66;;;8.28;100.00
40920;BME280;26652;50.280;19.026;2024-03-29T01:21:59;149824.72;;;8.13;100.00
40920;BME280;26652;50.280;19.026;2024-03-29T01:24:00;149798.88;;;8.02;100.00
40920;BME280;26652;50.280;19.026;2024-03-29T01:26:01;149809.97;;;8.07;100.00
40920;BME280;26652;50.280;19.026;2024-03-29T01:28:02;149850.56;;;8.24;100.00
40920;BME280;26652;50.280;19.026;2024-03-29T01:30:05;149824.72;;;8.13;100.00
40920;BME280;26652;50.280;19.026;2024-03-29T01:32:06;149806.28;;;8.05;100.00
40920;BME280;26652;50.280;19.026;2024-03-29T01:34:07;149801.34;;;8.03;100.00
40920;BME280;26652;50.280;19.026;2024-03-29T01:36:08;149816.13;;;8.09;100.00
40920;BME280;26652;50.280;19.026;2024-03-29T01:38:08;149793.97;;;8.00;100.00
40920;BME280;26652;50.280;19.026;2024-03-29T01:40:09;149808.75;;;8.06;100.00
40920;BME280;26652;50.280;19.026;2024-03-29T01:42:10;149807.50;;;8.06;100.00
40920;BME280;26652;50.280;19.026;2024-03-29T01:44:11;149798.88;;;8.02;100.00
40920;BME280;26652;50.280;19.026;2024-03-29T01:46:12;149808.75;;;8.06;100.00
40920;BME280;26652;50.280;19.026;2024-03-29T01:48:13;149825.97;;;8.13;100.00
40920;BME280;26652;50.280;19.026;2024-03-29T01:50:14;149814.88;;;8.09;100.00
40920;BME280;26652;50.280;19.026;2024-03-29T01:52:16;149786.59;;;7.97;100.00
40920;BME280;26652;50.280;19.026;2024-03-29T01:54:17;149737.38;;;7.77;100.00
40920;BME280;26652;50.280;19.026;2024-03-29T01:56:20;149746.00;;;7.80;100.00
40920;BME280;26652;50.280;19.026;2024-03-29T01:58:21;149699.25;;;7.61;100.00
40920;BME280;26652;50.280;19.026;2024-03-29T02:00:23;149704.16;;;7.63;100.00
40920;BME280;26652;50.280;19.026;2024-03-29T02:02:24;149672.19;;;7.50;100.00
40920;BME280;26652;50.280;19.026;2024-03-29T02:04:26;149696.78;;;7.60;100.00
40920;BME280;26652;50.280;19.026;2024-03-29T02:06:27;149726.31;;;7.72;100.00
40920;BME280;26652;50.280;19.026;2024-03-29T02:08:28;149720.16;;;7.70;100.00
40920;BME280;26652;50.280;19.026;2024-03-29T02:10:28;149718.91;;;7.69;100.00
40920;BME280;26652;50.280;19.026;2024-03-29T02:12:29;149721.38;;;7.70;100.00
40920;BME280;26652;50.280;19.026;2024-03-29T02:14:30;149695.53;;;7.60;100.00
40920;BME280;26652;50.280;19.026;2024-03-29T02:16:30;149700.47;;;7.62;100.00
40920;BME280;26652;50.280;19.026;2024-03-29T02:18:31;149662.34;;;7.46;100.00
40920;BME280;26652;50.280;19.026;2024-03-29T02:20:32;149705.38;;;7.64;100.00
40920;BME280;26652;50.280;19.026;2024-03-29T02:22:36;149650.03;;;7.41;100.00
40920;BME280;26652;50.280;19.026;2024-03-29T02:24:41;149651.25;;;7.41;100.00
40920;BME280;26652;50.280;19.026;2024-03-29T02:26:41;149621.75;;;7.29;100.00
40920;BME280;26652;50.280;19.026;2024-03-29T02:28:43;149678.31;;;7.52;100.00
40920;BME280;26652;50.280;19.026;2024-03-29T02:30:43;149645.13;;;7.39;100.00
40920;BME280;26652;50.280;19.026;2024-03-29T02:32:45;149686.94;;;7.56;100.00
40920;BME280;26652;50.280;19.026;2024-03-29T02:34:45;149678.31;;;7.52;100.00
40920;BME280;26652;50.280;19.026;2024-03-29T02:36:46;149657.41;;;7.44;100.00
40920;BME280;26652;50.280;19.026;2024-03-29T02:38:47;149625.44;;;7.31;100.00
40920;BME280;26652;50.280;19.026;2024-03-29T02:40:48;149648.81;;;7.40;100.00
40920;BME280;26652;50.280;19.026;2024-03-29T02:42:49;149636.50;;;7.35;100.00
40920;BME280;26652;50.280;19.026;2024-03-29T02:44:50;149636.50;;;7.35;100.00
40920;BME280;26652;50.280;19.026;2024-03-29T02:46:50;149666.03;;;7.47;100.00
40920;BME280;26652;50.280;19.026;2024-03-29T02:48:51;149675.88;;;7.51;100.00
40920;BME280;26652;50.280;19.026;2024-03-29T02:50:52;149621.75;;;7.29;100.00
40920;BME280;26652;50.280;19.026;2024-03-29T02:52:53;149629.13;;;7.32;100.00
40920;BME280;26652;50.280;19.026;2024-03-29T02:54:53;149641.44;;;7.37;100.00
40920;BME280;26652;50.280;19.026;2024-03-29T02:56:54;149591.06;;;7.16;100.00
40920;BME280;26652;50.280;19.026;2024-03-29T02:58:55;149622.97;;;7.30;100.00
40920;BME280;26652;50.280;19.026;2024-03-29T03:00:56;149600.88;;;7.20;100.00
40920;BME280;26652;50.280;19.026;2024-03-29T03:02:56;149647.56;;;7.40;100.00
40920;BME280;26652;50.280;19.026;2024-03-29T03:04:57;149603.34;;;7.21;100.00
40920;BME280;26652;50.280;19.026;2024-03-29T03:06:59;149600.88;;;7.20;100.00
40920;BME280;26652;50.280;19.026;2024-03-29T03:09:19;149589.81;;;7.16;100.00
40920;BME280;26652;50.280;19.026;2024-03-29T03:11:38;149595.97;;;7.18;100.00
40920;BME280;26652;50.280;19.026;2024-03-29T03:13:39;149556.63;;;7.02;100.00
40920;BME280;26652;50.280;19.026;2024-03-29T03:15:39;149572.59;;;7.09;100.00
40920;BME280;26652;50.280;19.026;2024-03-29T03:17:40;149609.50;;;7.24;100.00
40920;BME280;26652;50.280;19.026;2024-03-29T03:19:41;149622.97;;;7.30;100.00
40920;BME280;26652;50.280;19.026;2024-03-29T03:21:42;149605.81;;;7.22;100.00
40920;BME280;26652;50.280;19.026;2024-03-29T03:23:42;149587.38;;;7.15;100.00
40920;BME280;26652;50.280;19.026;2024-03-29T03:25:43;149588.59;;;7.15;100.00
40920;BME280;26652;50.280;19.026;2024-03-29T03:27:44;149599.66;;;7.20;100.00
40920;BME280;26652;50.280;19.026;2024-03-29T03:29:45;149613.19;;;7.26;100.00
40920;BME280;26652;50.280;19.026;2024-03-29T03:31:45;149587.38;;;7.15;100.00
40920;BME280;26652;50.280;19.026;2024-03-29T03:33:46;149616.88;;;7.27;100.00
40920;BME280;26652;50.280;19.026;2024-03-29T03:35:47;149584.91;;;7.14;100.00
40920;BME280;26652;50.280;19.026;2024-03-29T03:37:48;149600.88;;;7.20;100.00
40920;BME280;26652;50.280;19.026;2024-03-29T03:39:49;149597.19;;;7.19;100.00
40920;BME280;26652;50.280;19.026;2024-03-29T03:41:50;149573.84;;;7.09;100.00
40920;BME280;26652;50.280;19.026;2024-03-29T03:43:51;149564.00;;;7.05;100.00
40920;BME280;26652;50.280;19.026;2024-03-29T03:45:52;149555.41;;;7.02;100.00
40920;BME280;26652;50.280;19.026;2024-03-29T03:47:52;149572.59;;;7.09;100.00
40920;BME280;26652;50.280;19.026;2024-03-29T03:49:53;149564.00;;;7.05;100.00
40920;BME280;26652;50.280;19.026;2024-03-29T03:51:54;149538.19;;;6.95;100.00
40920;BME280;26652;50.280;19.026;2024-03-29T03:53:55;149538.19;;;6.95;100.00
40920;BME280;26652;50.280;19.026;2024-03-29T03:55:55;149530.81;;;6.92;100.00
40920;BME280;26652;50.280;19.026;2024-03-29T03:57:56;149559.09;;;7.03;100.00
40920;BME280;26652;50.280;19.026;2024-03-29T03:59:57;149544.31;;;6.97;100.00
40920;BME280;26652;50.280;19.026;2024-03-29T04:01:58;149546.78;;;6.98;100.00
40920;BME280;26652;50.280;19.026;2024-03-29T04:03:58;149562.78;;;7.05;100.00
40920;BME280;26652;50.280;19.026;2024-03-29T04:06:03;149518.50;;;6.86;100.00
40920;BME280;26652;50.280;19.026;2024-03-29T04:08:04;149549.25;;;6.99;100.00
40920;BME280;26652;50.280;19.026;2024-03-29T04:10:05;149520.97;;;6.87;100.00
40920;BME280;26652;50.280;19.026;2024-03-29T04:12:06;149500.06;;;6.79;100.00
40920;BME280;26652;50.280;19.026;2024-03-29T04:14:07;149509.91;;;6.83;100.00
40920;BME280;26652;50.280;19.026;2024-03-29T04:16:07;149479.16;;;6.70;100.00
40920;BME280;26652;50.280;19.026;2024-03-29T04:18:08;149489.00;;;6.74;100.00
40920;BME280;26652;50.280;19.026;2024-03-29T04:20:09;149501.28;;;6.79;100.00
40920;BME280;26652;50.280;19.026;2024-03-29T04:22:10;149490.22;;;6.75;100.00
40920;BME280;26652;50.280;19.026;2024-03-29T04:24:11;149489.00;;;6.74;100.00
40920;BME280;26652;50.280;19.026;2024-03-29T04:26:11;149461.97;;;6.63;100.00
40920;BME280;26652;50.280;19.026;2024-03-29T04:28:12;149484.09;;;6.72;100.00
40920;BME280;26652;50.280;19.026;2024-03-29T04:30:13;149508.66;;;6.82;100.00
40920;BME280;26652;50.280;19.026;2024-03-29T04:32:14;149489.00;;;6.74;100.00
40920;BME280;26652;50.280;19.026;2024-03-29T04:34:15;149466.88;;;6.65;100.00
40920;BME280;26652;50.280;19.026;2024-03-29T04:36:15;149448.44;;;6.57;100.00
40920;BME280;26652;50.280;19.026;2024-03-29T04:38:16;149479.16;;;6.70;100.00
40920;BME280;26652;50.280;19.026;2024-03-29T04:40:17;149465.66;;;6.65;100.00
40920;BME280;26652;50.280;19.026;2024-03-29T04:42:18;149454.59;;;6.60;100.00
40920;BME280;26652;50.280;19.026;2024-03-29T04:44:25;149437.38;;;6.53;100.00
40920;BME280;26652;50.280;19.026;2024-03-29T04:46:29;149452.13;;;6.59;100.00
40920;BME280;26652;50.280;19.026;2024-03-29T04:48:30;149422.63;;;6.47;100.00
40920;BME280;26652;50.280;19.026;2024-03-29T04:50:32;149423.84;;;6.47;100.00
40920;BME280;26652;50.280;19.026;2024-03-29T04:52:32;149428.78;;;6.49;100.00
40920;BME280;26652;50.280;19.026;2024-03-29T04:54:33;149418.94;;;6.45;100.00
40920;BME280;26652;50.280;19.026;2024-03-29T04:56:34;149448.44;;;6.57;100.00
40920;BME280;26652;50.280;19.026;2024-03-29T04:58:37;149388.22;;;6.33;100.00
40920;BME280;26652;50.280;19.026;2024-03-29T05:00:37;149428.78;;;6.49;100.00
40920;BME280;26652;50.280;19.026;2024-03-29T05:02:38;149410.34;;;6.42;100.00
40920;BME280;26652;50.280;19.026;2024-03-29T05:04:39;149441.06;;;6.54;100.00
40920;BME280;26652;50.280;19.026;2024-03-29T05:06:40;149425.09;;;6.48;100.00
40920;BME280;26652;50.280;19.026;2024-03-29T05:08:40;149430.00;;;6.50;100.00
40920;BME280;26652;50.280;19.026;2024-03-29T05:10:41;149470.56;;;6.67;100.00
40920;BME280;26652;50.280;19.026;2024-03-29T05:12:42;149453.34;;;6.60;100.00
40920;BME280;26652;50.280;19.026;2024-03-29T05:14:43;149434.91;;;6.52;100.00
40920;BME280;26652;50.280;19.026;2024-03-29T05:16:47;149460.72;;;6.63;100.00
40920;BME280;26652;50.280;19.026;2024-03-29T05:18:48;149457.03;;;6.61;99.84
40920;BME280;26652;50.280;19.026;2024-03-29T05:20:49;149466.88;;;6.65;100.00
40920;BME280;26652;50.280;19.026;2024-03-29T05:22:51;149489.00;;;6.74;100.00
40920;BME280;26652;50.280;19.026;2024-03-29T05:24:53;149470.56;;;6.67;99.39
40920;BME280;26652;50.280;19.026;2024-03-29T05:26:54;149487.78;;;6.74;99.42
40920;BME280;26652;50.280;19.026;2024-03-29T05:28:55;149466.88;;;6.65;99.86
40920;BME280;26652;50.280;19.026;2024-03-29T05:31:11;149511.13;;;6.83;99.05
40920;BME280;26652;50.280;19.026;2024-03-29T05:33:13;149540.63;;;6.96;99.18
40920;BME280;26652;50.280;19.026;2024-03-29T05:35:14;149550.47;;;7.00;97.93
40920;BME280;26652;50.280;19.026;2024-03-29T05:37:15;149524.66;;;6.89;96.97
40920;BME280;26652;50.280;19.026;2024-03-29T05:39:18;149540.63;;;6.96;97.49
40920;BME280;26652;50.280;19.026;2024-03-29T05:41:19;149554.16;;;7.01;96.62
40920;BME280;26652;50.280;19.026;2024-03-29T05:43:20;149571.38;;;7.08;96.10
40920;BME280;26652;50.280;19.026;2024-03-29T05:45:30;149607.03;;;7.23;95.99
40920;BME280;26652;50.280;19.026;2024-03-29T05:47:32;149650.03;;;7.41;95.70
40920;BME280;26652;50.280;19.026;2024-03-29T05:49:32;149698.00;;;7.61;94.28
40920;BME280;26652;50.280;19.026;2024-03-29T05:51:34;149711.53;;;7.66;92.48
40920;BME280;26652;50.280;19.026;2024-03-29T05:53:34;149733.69;;;7.75;91.37
40920;BME280;26652;50.280;19.026;2024-03-29T05:55:35;149695.53;;;7.60;91.48
40920;BME280;26652;50.280;19.026;2024-03-29T05:57:36;149706.63;;;7.64;90.59
40920;BME280;26652;50.280;19.026;2024-03-29T05:59:42;149727.53;;;7.73;89.34
40920;BME280;26652;50.280;19.026;2024-03-29T06:01:42;149747.22;;;7.81;88.26
40920;BME280;26652;50.280;19.026;2024-03-29T06:03:43;149777.97;;;7.94;88.88
40920;BME280;26652;50.280;19.026;2024-03-29T06:05:44;149825.97;;;8.13;87.91
40920;BME280;26652;50.280;19.026;2024-03-29T06:07:45;149809.97;;;8.07;86.69
40920;BME280;26652;50.280;19.026;2024-03-29T06:09:45;149872.72;;;8.33;86.51
40920;BME280;26652;50.280;19.026;2024-03-29T06:11:46;149887.50;;;8.39;85.37
40920;BME280;26652;50.280;19.026;2024-03-29T06:13:47;149892.44;;;8.41;84.47
40920;BME280;26652;50.280;19.026;2024-03-29T06:15:54;149929.34;;;8.56;84.19
40920;BME280;26652;50.280;19.026;2024-03-29T06:18:12;149974.91;;;8.75;85.22
40920;BME280;26652;50.280;19.026;2024-03-29T06:20:16;150019.22;;;8.93;82.46
40920;BME280;26652;50.280;19.026;2024-03-29T06:22:17;150040.16;;;9.02;80.68
40920;BME280;26652;50.280;19.026;2024-03-29T06:24:18;150091.88;;;9.23;81.29
40920;BME280;26652;50.280;19.026;2024-03-29T06:26:19;150180.53;;;9.60;81.54
40920;BME280;26652;50.280;19.026;2024-03-29T06:28:21;150377.69;;;10.41;75.87
40920;BME280;26652;50.280;19.026;2024-03-29T06:30:22;150795.81;;;12.13;72.37
40920;BME280;26652;50.280;19.026;2024-03-29T06:32:23;151223.03;;;13.89;65.07
40920;BME280;26652;50.280;19.026;2024-03-29T06:34:23;151577.84;;;15.34;61.10
40920;BME280;26652;50.280;19.026;2024-03-29T06:36:24;151873.59;;;16.56;54.02
40920;BME280;26652;50.280;19.026;2024-03-29T06:38:25;152065.50;;;17.35;49.10
40920;BME280;26652;50.280;19.026;2024-03-29T06:40:26;152199.28;;;17.89;48.71
40920;BME280;26652;50.280;19.026;2024-03-29T06:42:27;152235.22;;;18.04;47.41
40920;BME280;26652;50.280;19.026;2024-03-29T06:44:28;152381.50;;;18.64;47.22
40920;BME280;26652;50.280;19.026;2024-03-29T06:46:28;152536.44;;;19.27;43.97
40920;BME280;26652;50.280;19.026;2024-03-29T06:48:29;152542.63;;;19.30;44.40
40920;BME280;26652;50.280;19.026;2024-03-29T06:50:33;152589.78;;;19.49;42.36
40920;BME280;26652;50.280;19.026;2024-03-29T06:52:34;152510.41;;;19.17;42.60
40920;BME280;26652;50.280;19.026;2024-03-29T06:54:34;152545.13;;;19.31;42.30
40920;BME280;26652;50.280;19.026;2024-03-29T06:56:35;152366.59;;;18.58;43.48
40920;BME280;26652;50.280;19.026;2024-03-29T06:58:36;152222.84;;;17.99;44.31
40920;BME280;26652;50.280;19.026;2024-03-29T07:00:37;152250.09;;;18.10;44.20
40920;BME280;26652;50.280;19.026;2024-03-29T07:02:38;152371.56;;;18.60;45.16
40920;BME280;26652;50.280;19.026;2024-03-29T07:04:39;152557.53;;;19.36;42.65
40920;BME280;26652;50.280;19.026;2024-03-29T07:06:39;152483.13;;;19.06;43.12
40920;BME280;26652;50.280;19.026;2024-03-29T07:08:43;152361.63;;;18.56;43.11
40920;BME280;26652;50.280;19.026;2024-03-29T07:10:43;152419.91;;;18.80;42.31
40920;BME280;26652;50.280;19.026;2024-03-29T07:12:44;152422.38;;;18.81;41.56
40920;BME280;26652;50.280;19.026;2024-03-29T07:14:45;152457.09;;;18.95;42.31
40920;BME280;26652;50.280;19.026;2024-03-29T07:16:46;152560.00;;;19.37;41.27
40920;BME280;26652;50.280;19.026;2024-03-29T07:18:46;152708.84;;;19.98;40.74
40920;BME280;26652;50.280;19.026;2024-03-29T07:20:47;152614.63;;;19.59;40.48
40920;BME280;26652;50.280;19.026;2024-03-29T07:22:48;152480.66;;;19.05;42.50
40920;BME280;26652;50.280;19.026;2024-03-29T07:24:49;152527.75;;;19.24;41.15
40920;BME280;26652;50.280;19.026;2024-03-29T07:26:50;152490.56;;;19.09;41.36
40920;BME280;26652;50.280;19.026;2024-03-29T07:28:51;152537.69;;;19.28;41.47
40920;BME280;26652;50.280;19.026;2024-03-29T07:30:53;152591.00;;;19.50;40.53
40920;BME280;26652;50.280;19.026;2024-03-29T07:32:54;152479.41;;;19.04;41.58
40920;BME280;26652;50.280;19.026;2024-03-29T07:34:54;152212.94;;;17.95;42.92
40920;BME280;26652;50.280;19.026;2024-03-29T07:36:58;152305.88;;;18.33;43.06
40920;BME280;26652;50.280;19.026;2024-03-29T07:39:01;152235.22;;;18.04;43.63
40920;BME280;26652;50.280;19.026;2024-03-29T07:41:02;152115.06;;;17.55;44.54
40920;BME280;26652;50.280;19.026;2024-03-29T07:43:03;152076.66;;;17.39;45.03
40920;BME280;26652;50.280;19.026;2024-03-29T07:45:04;152008.53;;;17.11;45.36
40920;BME280;26652;50.280;19.026;2024-03-29T07:47:05;151980.06;;;16.99;45.71
40920;BME280;26652;50.280;19.026;2024-03-29T07:49:06;151904.53;;;16.68;46.34
40920;BME280;26652;50.280;19.026;2024-03-29T07:51:08;151980.06;;;16.99;46.06
40920;BME280;26652;50.280;19.026;2024-03-29T07:53:09;152080.38;;;17.41;44.67
40920;BME280;26652;50.280;19.026;2024-03-29T07:55:10;152033.31;;;17.21;44.86
40920;BME280;26652;50.280;19.026;2024-03-29T07:57:11;151939.19;;;16.83;45.01
40920;BME280;26652;50.280;19.026;2024-03-29T07:59:15;151884.72;;;16.60;46.31
40920;BME280;26652;50.280;19.026;2024-03-29T08:01:22;151843.88;;;16.44;47.60
40920;BME280;26652;50.280;19.026;2024-03-29T08:03:23;151780.75;;;16.18;46.94
40920;BME280;26652;50.280;19.026;2024-03-29T08:05:24;151788.19;;;16.21;46.13
40920;BME280;26652;50.280;19.026;2024-03-29T08:07:25;151687.97;;;15.80;46.59
40920;BME280;26652;50.280;19.026;2024-03-29T08:09:26;151690.44;;;15.81;46.93
40920;BME280;26652;50.280;19.026;2024-03-29T08:11:27;151739.91;;;16.01;46.17
40920;BME280;26652;50.280;19.026;2024-03-29T08:13:27;151803.03;;;16.27;47.02
40920;BME280;26652;50.280;19.026;2024-03-29T08:15:28;151836.44;;;16.41;45.46
40920;BME280;26652;50.280;19.026;2024-03-29T08:17:30;151783.22;;;16.19;45.78
40920;BME280;26652;50.280;19.026;2024-03-29T08:19:30;151778.28;;;16.17;46.66
40920;BME280;26652;50.280;19.026;2024-03-29T08:21:31;151795.59;;;16.24;46.35
40920;BME280;26652;50.280;19.026;2024-03-29T08:23:32;151864.91;;;16.52;45.40
40920;BME280;26652;50.280;19.026;2024-03-29T08:25:32;151911.97;;;16.72;44.83
40920;BME280;26652;50.280;19.026;2024-03-29T08:27:33;151848.84;;;16.46;46.07
40920;BME280;26652;50.280;19.026;2024-03-29T08:29:34;151954.06;;;16.89;45.15
40920;BME280;26652;50.280;19.026;2024-03-29T08:31:35;152023.41;;;17.17;44.02
40920;BME280;26652;50.280;19.026;2024-03-29T08:33:36;152009.78;;;17.12;43.62
40920;BME280;26652;50.280;19.026;2024-03-29T08:35:40;152024.66;;;17.18;44.86
40920;BME280;26652;50.280;19.026;2024-03-29T08:37:44;151835.22;;;16.40;45.11
40920;BME280;26652;50.280;19.026;2024-03-29T08:39:44;151905.78;;;16.69;45.12
40920;BME280;26652;50.280;19.026;2024-03-29T08:41:45;151763.44;;;16.11;45.23
40920;BME280;26652;50.280;19.026;2024-03-29T08:43:46;151686.72;;;15.79;46.70
40920;BME280;26652;50.280;19.026;2024-03-29T08:45:47;151702.81;;;15.86;45.64
40920;BME280;26652;50.280;19.026;2024-03-29T08:47:48;151591.47;;;15.40;46.03
40920;BME280;26652;50.280;19.026;2024-03-29T08:49:49;151627.34;;;15.55;46.17
40920;BME280;26652;50.280;19.026;2024-03-29T08:51:50;151684.25;;;15.78;45.07
40920;BME280;26652;50.280;19.026;2024-03-29T08:53:51;151664.44;;;15.70;45.76
40920;BME280;26652;50.280;19.026;2024-03-29T08:55:51;151582.81;;;15.36;46.17
40920;BME280;26652;50.280;19.026;2024-03-29T08:57:52;151610.00;;;15.48;48.24
40920;BME280;26652;50.280;19.026;2024-03-29T08:59:54;151657.03;;;15.67;47.96
40920;BME280;26652;50.280;19.026;2024-03-29T09:02:03;151592.69;;;15.41;47.80
40920;BME280;26652;50.280;19.026;2024-03-29T09:04:04;151501.16;;;15.03;48.99
40920;BME280;26652;50.280;19.026;2024-03-29T09:06:08;151485.09;;;14.96;48.70
40920;BME280;26652;50.280;19.026;2024-03-29T09:08:09;151512.31;;;15.08;48.04
40920;BME280;26652;50.280;19.026;2024-03-29T09:10:10;151488.81;;;14.98;47.13
40920;BME280;26652;50.280;19.026;2024-03-29T09:12:10;151480.16;;;14.94;47.78
40920;BME280;26652;50.280;19.026;2024-03-29T09:14:11;151498.69;;;15.02;47.10
40920;BME280;26652;50.280;19.026;2024-03-29T09:16:12;151394.84;;;14.59;47.66
40920;BME280;26652;50.280;19.026;2024-03-29T09:18:13;151389.91;;;14.57;47.79
40920;BME280;26652;50.280;19.026;2024-03-29T09:20:19;151355.34;;;14.43;47.78
40920;BME280;26652;50.280;19.026;2024-03-29T09:22:20;151402.25;;;14.62;47.62
40920;BME280;26652;50.280;19.026;2024-03-29T09:24:21;151368.94;;;14.49;48.05
40920;BME280;26652;50.280;19.026;2024-03-29T09:26:23;151333.03;;;14.34;47.65
40920;BME280;26652;50.280;19.026;2024-03-29T09:28:24;151356.56;;;14.44;46.87
40920;BME280;26652;50.280;19.026;2024-03-29T09:30:25;151362.75;;;14.46;48.03
40920;BME280;26652;50.280;19.026;2024-03-29T09:32:25;151392.38;;;14.58;48.13
40920;BME280;26652;50.280;19.026;2024-03-29T09:34:26;151422.03;;;14.70;46.28
40920;BME280;26652;50.280;19.026;2024-03-29T09:36:27;151454.19;;;14.84;46.69
40920;BME280;26652;50.280;19.026;2024-03-29T09:38:28;151471.50;;;14.91;45.72
40920;BME280;26652;50.280;19.026;2024-03-29T09:40:29;151529.63;;;15.15;45.82
40920;BME280;26652;50.280;19.026;2024-03-29T09:42:32;151543.22;;;15.20;46.59
40920;BME280;26652;50.280;19.026;2024-03-29T09:44:34;151546.94;;;15.22;45.82
40920;BME280;26652;50.280;19.026;2024-03-29T09:46:37;151559.31;;;15.27;46.65
40920;BME280;26652;50.280;19.026;2024-03-29T09:48:41;151612.50;;;15.49;47.46
40920;BME280;26652;50.280;19.026;2024-03-29T09:50:42;151606.31;;;15.46;46.76
40920;BME280;26652;50.280;19.026;2024-03-29T09:52:43;151607.53;;;15.47;46.33
40920;BME280;26652;50.280;19.026;2024-03-29T09:54:44;151598.88;;;15.43;46.81
40920;BME280;26652;50.280;19.026;2024-03-29T09:56:44;151619.91;;;15.52;46.38
40920;BME280;26652;50.280;19.026;2024-03-29T09:58:45;151617.44;;;15.51;44.58
40920;BME280;26652;50.280;19.026;2024-03-29T10:00:46;151654.56;;;15.66;43.39
40920;BME280;26652;50.280;19.026;2024-03-29T10:02:49;151624.88;;;15.54;43.71
40920;BME280;26652;50.280;19.026;2024-03-29T10:04:51;151642.19;;;15.61;43.54
40920;BME280;26652;50.280;19.026;2024-03-29T10:06:54;151657.03;;;15.67;45.24
40920;BME280;26652;50.280;19.026;2024-03-29T10:08:55;151673.09;;;15.74;44.68
40920;BME280;26652;50.280;19.026;2024-03-29T10:10:59;151753.53;;;16.07;44.06
40920;BME280;26652;50.280;19.026;2024-03-29T10:12:59;151681.75;;;15.77;42.96
40920;BME280;26652;50.280;19.026;2024-03-29T10:15:03;151696.63;;;15.83;42.86
40920;BME280;26652;50.280;19.026;2024-03-29T10:17:09;151687.97;;;15.80;42.65
40920;BME280;26652;50.280;19.026;2024-03-29T10:19:11;151715.19;;;15.91;42.71
40920;BME280;26652;50.280;19.026;2024-03-29T10:21:12;151749.81;;;16.05;42.64
40920;BME280;26652;50.280;19.026;2024-03-29T10:23:14;151777.06;;;16.16;42.38
40920;BME280;26652;50.280;19.026;2024-03-29T10:25:15;151952.81;;;16.88;42.15
40920;BME280;26652;50.280;19.026;2024-03-29T10:27:17;151947.88;;;16.86;41.72